sensor_id;sensor_type;location;lat;lon;timestamp;P1;durP1;ratioP1;P2;durP2;ratioP2
43580;SDS011;29175;51.030;4.606;2023-06-26T00:00:35;9.35;;;4.72;;
43580;SDS011;29175;51.030;4.606;2023-06-26T00:03:02;13.02;;;4.90;;
43580;SDS011;29175;51.030;4.606;2023-06-26T00:05:27;11.65;;;4.88;;
43580;SDS011;29175;51.030;4.606;2023-06-26T00:07:55;12.85;;;5.10;;
43580;SDS011;29175;51.030;4.606;2023-06-26T00:10:23;10.25;;;4.18;;
43580;SDS011;29175;51.030;4.606;2023-06-26T00:12:48;9.90;;;4.78;;
43580;SDS011;29175;51.030;4.606;2023-06-26T00:15:14;9.88;;;4.40;;
43580;SDS011;29175;51.030;4.606;2023-06-26T00:17:40;11.50;;;4.60;;
43580;SDS011;29175;51.030;4.606;2023-06-26T00:20:06;11.23;;;4.45;;
43580;SDS011;29175;51.030;4.606;2023-06-26T00:22:32;14.57;;;4.97;;
43580;SDS011;29175;51.030;4.606;2023-06-26T00:24:57;10.00;;;4.50;;
43580;SDS011;29175;51.030;4.606;2023-06-26T00:27:23;9.57;;;4.53;;
43580;SDS011;29175;51.030;4.606;2023-06-26T00:29:50;9.45;;;4.20;;
43580;SDS011;29175;51.030;4.606;2023-06-26T00:32:18;12.38;;;5.05;;
43580;SDS011;29175;51.030;4.606;2023-06-26T00:34:43;10.60;;;4.65;;
43580;SDS011;29175;51.030;4.606;2023-06-26T00:37:09;10.93;;;4.43;;
43580;SDS011;29175;51.030;4.606;2023-06-26T00:39:35;10.45;;;4.72;;
43580;SDS011;29175;51.030;4.606;2023-06-26T00:42:00;12.27;;;5.10;;
43580;SDS011;29175;51.030;4.606;2023-06-26T00:44:26;11.85;;;4.28;;
43580;SDS011;29175;51.030;4.606;2023-06-26T00:46:52;11.25;;;5.13;;
43580;SDS011;29175;51.030;4.606;2023-06-26T00:49:18;11.63;;;4.70;;
43580;SDS011;29175;51.030;4.606;2023-06-26T00:51:44;11.25;;;4.70;;
43580;SDS011;29175;51.030;4.606;2023-06-26T00:54:10;13.52;;;4.45;;
43580;SDS011;29175;51.030;4.606;2023-06-26T00:56:36;9.23;;;4.93;;
43580;SDS011;29175;51.030;4.606;2023-06-26T00:59:02;10.45;;;5.05;;
43580;SDS011;29175;51.030;4.606;2023-06-26T01:01:28;14.32;;;4.28;;
43580;SDS011;29175;51.030;4.606;2023-06-26T01:03:53;9.38;;;4.45;;
43580;SDS011;29175;51.030;4.606;2023-06-26T01:06:20;11.27;;;4.38;;
43580;SDS011;29175;51.030;4.606;2023-06-26T01:08:48;10.55;;;4.50;;
43580;SDS011;29175;51.030;4.606;2023-06-26T01:11:14;7.53;;;3.90;;
43580;SDS011;29175;51.030;4.606;2023-06-26T01:13:41;11.23;;;4.07;;
43580;SDS011;29175;51.030;4.606;2023-06-26T01:16:10;10.07;;;4.50;;
43580;SDS011;29175;51.030;4.606;2023-06-26T01:18:36;9.98;;;4.22;;
43580;SDS011;29175;51.030;4.606;2023-06-26T01:21:07;11.75;;;4.40;;
43580;SDS011;29175;51.030;4.606;2023-06-26T01:23:49;13.65;;;4.65;;
43580;SDS011;29175;51.030;4.606;2023-06-26T01:26:26;10.75;;;4.20;;
43580;SDS011;29175;51.030;4.606;2023-06-26T01:28:54;12.88;;;5.30;;
43580;SDS011;29175;51.030;4.606;2023-06-26T01:31:22;8.88;;;4.13;;
43580;SDS011;29175;51.030;4.606;2023-06-26T01:33:49;8.82;;;4.35;;
43580;SDS011;29175;51.030;4.606;2023-06-26T01:36:15;9.93;;;4.38;;
43580;SDS011;29175;51.030;4.606;2023-06-26T01:38:41;14.48;;;5.07;;
43580;SDS011;29175;51.030;4.606;2023-06-26T01:41:07;9.73;;;4.30;;
43580;SDS011;29175;51.030;4.606;2023-06-26T01:46:43;14.52;;;4.45;;
43580;SDS011;29175;51.030;4.606;2023-06-26T01:49:22;11.07;;;4.78;;
43580;SDS011;29175;51.030;4.606;2023-06-26T01:51:58;15.15;;;4.93;;
43580;SDS011;29175;51.030;4.606;2023-06-26T01:54:36;12.30;;;4.65;;
43580;SDS011;29175;51.030;4.606;2023-06-26T01:57:07;12.57;;;4.43;;
43580;SDS011;29175;51.030;4.606;2023-06-26T01:59:35;10.95;;;4.50;;
43580;SDS011;29175;51.030;4.606;2023-06-26T02:02:02;13.02;;;4.35;;
43580;SDS011;29175;51.030;4.606;2023-06-26T02:04:31;13.90;;;4.90;;
43580;SDS011;29175;51.030;4.606;2023-06-26T02:06:57;12.95;;;4.47;;
43580;SDS011;29175;51.030;4.606;2023-06-26T02:09:22;11.52;;;4.18;;
43580;SDS011;29175;51.030;4.606;2023-06-26T02:11:48;10.73;;;4.57;;
43580;SDS011;29175;51.030;4.606;2023-06-26T02:14:14;14.73;;;4.90;;
43580;SDS011;29175;51.030;4.606;2023-06-26T02:16:39;12.30;;;4.47;;
43580;SDS011;29175;51.030;4.606;2023-06-26T02:19:05;15.75;;;4.90;;
43580;SDS011;29175;51.030;4.606;2023-06-26T02:21:31;11.25;;;4.15;;
43580;SDS011;29175;51.030;4.606;2023-06-26T02:23:57;10.80;;;3.97;;
43580;SDS011;29175;51.030;4.606;2023-06-26T02:26:22;12.13;;;4.70;;
43580;SDS011;29175;51.030;4.606;2023-06-26T02:28:48;11.68;;;4.57;;
43580;SDS011;29175;51.030;4.606;2023-06-26T02:31:14;14.32;;;4.55;;
43580;SDS011;29175;51.030;4.606;2023-06-26T02:33:41;12.88;;;4.47;;
43580;SDS011;29175;51.030;4.606;2023-06-26T02:36:07;10.43;;;4.55;;
43580;SDS011;29175;51.030;4.606;2023-06-26T02:38:33;14.32;;;4.80;;
43580;SDS011;29175;51.030;4.606;2023-06-26T02:40:58;12.23;;;4.30;;
43580;SDS011;29175;51.030;4.606;2023-06-26T02:43:24;14.07;;;4.28;;
43580;SDS011;29175;51.030;4.606;2023-06-26T02:45:50;11.73;;;4.60;;
43580;SDS011;29175;51.030;4.606;2023-06-26T02:48:15;10.32;;;4.13;;
43580;SDS011;29175;51.030;4.606;2023-06-26T02:50:41;17.45;;;4.97;;
43580;SDS011;29175;51.030;4.606;2023-06-26T02:53:07;18.65;;;4.82;;
43580;SDS011;29175;51.030;4.606;2023-06-26T02:55:33;17.33;;;4.35;;
43580;SDS011;29175;51.030;4.606;2023-06-26T02:57:59;11.40;;;4.45;;
43580;SDS011;29175;51.030;4.606;2023-06-26T03:00:25;12.82;;;4.95;;
43580;SDS011;29175;51.030;4.606;2023-06-26T03:02:51;13.15;;;3.90;;
43580;SDS011;29175;51.030;4.606;2023-06-26T03:05:16;19.75;;;4.65;;
43580;SDS011;29175;51.030;4.606;2023-06-26T03:07:42;13.95;;;4.72;;
43580;SDS011;29175;51.030;4.606;2023-06-26T03:10:08;14.93;;;4.68;;
43580;SDS011;29175;51.030;4.606;2023-06-26T03:12:34;16.65;;;4.93;;
43580;SDS011;29175;51.030;4.606;2023-06-26T03:14:59;12.63;;;4.30;;
43580;SDS011;29175;51.030;4.606;2023-06-26T03:17:25;18.55;;;5.07;;
43580;SDS011;29175;51.030;4.606;2023-06-26T03:19:51;11.65;;;4.47;;
43580;SDS011;29175;51.030;4.606;2023-06-26T03:22:16;16.88;;;5.15;;
43580;SDS011;29175;51.030;4.606;2023-06-26T03:24:43;15.80;;;4.85;;
43580;SDS011;29175;51.030;4.606;2023-06-26T03:27:10;10.88;;;4.32;;
43580;SDS011;29175;51.030;4.606;2023-06-26T03:29:37;18.50;;;5.05;;
43580;SDS011;29175;51.030;4.606;2023-06-26T03:32:02;12.43;;;5.07;;
43580;SDS011;29175;51.030;4.606;2023-06-26T03:34:31;13.13;;;4.72;;
43580;SDS011;29175;51.030;4.606;2023-06-26T03:36:57;23.73;;;6.03;;
43580;SDS011;29175;51.030;4.606;2023-06-26T03:39:22;18.20;;;5.38;;
43580;SDS011;29175;51.030;4.606;2023-06-26T03:41:48;17.80;;;5.35;;
43580;SDS011;29175;51.030;4.606;2023-06-26T03:44:14;22.10;;;5.80;;
43580;SDS011;29175;51.030;4.606;2023-06-26T03:46:40;18.35;;;5.65;;
43580;SDS011;29175;51.030;4.606;2023-06-26T03:49:06;18.30;;;5.90;;
43580;SDS011;29175;51.030;4.606;2023-06-26T03:51:31;13.48;;;5.57;;
43580;SDS011;29175;51.030;4.606;2023-06-26T03:53:58;16.65;;;5.43;;
43580;SDS011;29175;51.030;4.606;2023-06-26T03:56:24;22.73;;;5.68;;
43580;SDS011;29175;51.030;4.606;2023-06-26T03:58:49;21.90;;;6.07;;
43580;SDS011;29175;51.030;4.606;2023-06-26T04:01:15;24.92;;;6.50;;
43580;SDS011;29175;51.030;4.606;2023-06-26T04:03:40;18.88;;;5.57;;
43580;SDS011;29175;51.030;4.606;2023-06-26T04:06:06;17.08;;;5.43;;
43580;SDS011;29175;51.030;4.606;2023-06-26T04:08:32;18.50;;;5.80;;
43580;SDS011;29175;51.030;4.606;2023-06-26T04:10:58;21.80;;;5.63;;
43580;SDS011;29175;51.030;4.606;2023-06-26T04:13:24;17.52;;;5.47;;
43580;SDS011;29175;51.030;4.606;2023-06-26T04:15:49;21.70;;;6.35;;
43580;SDS011;29175;51.030;4.606;2023-06-26T04:18:15;19.20;;;6.00;;
43580;SDS011;29175;51.030;4.606;2023-06-26T04:20:41;19.40;;;5.43;;
43580;SDS011;29175;51.030;4.606;2023-06-26T04:23:32;22.00;;;6.03;;
43580;SDS011;29175;51.030;4.606;2023-06-26T04:25:58;21.35;;;5.85;;
43580;SDS011;29175;51.030;4.606;2023-06-26T04:28:24;23.00;;;5.75;;
43580;SDS011;29175;51.030;4.606;2023-06-26T04:30:50;16.60;;;6.03;;
43580;SDS011;29175;51.030;4.606;2023-06-26T04:33:16;17.15;;;6.43;;
43580;SDS011;29175;51.030;4.606;2023-06-26T04:35:42;21.98;;;5.50;;
43580;SDS011;29175;51.030;4.606;2023-06-26T04:38:09;18.30;;;5.53;;
43580;SDS011;29175;51.030;4.606;2023-06-26T04:40:35;23.42;;;5.47;;
43580;SDS011;29175;51.030;4.606;2023-06-26T04:43:01;19.77;;;5.75;;
43580;SDS011;29175;51.030;4.606;2023-06-26T04:45:27;20.23;;;5.80;;
43580;SDS011;29175;51.030;4.606;2023-06-26T04:47:52;20.60;;;5.97;;
43580;SDS011;29175;51.030;4.606;2023-06-26T04:50:18;21.70;;;5.60;;
43580;SDS011;29175;51.030;4.606;2023-06-26T04:52:44;29.63;;;5.53;;
43580;SDS011;29175;51.030;4.606;2023-06-26T04:55:10;16.40;;;5.70;;
43580;SDS011;29175;51.030;4.606;2023-06-26T04:57:35;15.82;;;5.93;;
43580;SDS011;29175;51.030;4.606;2023-06-26T05:00:01;24.42;;;5.63;;
43580;SDS011;29175;51.030;4.606;2023-06-26T05:02:29;17.90;;;5.25;;
43580;SDS011;29175;51.030;4.606;2023-06-26T05:04:55;17.63;;;5.80;;
43580;SDS011;29175;51.030;4.606;2023-06-26T05:07:20;25.08;;;5.95;;
43580;SDS011;29175;51.030;4.606;2023-06-26T05:09:46;18.77;;;5.65;;
43580;SDS011;29175;51.030;4.606;2023-06-26T05:12:12;19.42;;;5.75;;
43580;SDS011;29175;51.030;4.606;2023-06-26T05:14:37;19.73;;;5.32;;
43580;SDS011;29175;51.030;4.606;2023-06-26T05:17:03;18.55;;;5.13;;
43580;SDS011;29175;51.030;4.606;2023-06-26T05:19:29;21.55;;;5.70;;
43580;SDS011;29175;51.030;4.606;2023-06-26T05:21:55;19.10;;;4.82;;
43580;SDS011;29175;51.030;4.606;2023-06-26T05:24:21;17.70;;;5.40;;
43580;SDS011;29175;51.030;4.606;2023-06-26T05:26:48;15.95;;;4.93;;
43580;SDS011;29175;51.030;4.606;2023-06-26T05:29:14;24.80;;;5.22;;
43580;SDS011;29175;51.030;4.606;2023-06-26T05:31:40;22.77;;;4.68;;
43580;SDS011;29175;51.030;4.606;2023-06-26T05:34:07;19.85;;;4.53;;
43580;SDS011;29175;51.030;4.606;2023-06-26T05:36:34;22.35;;;5.38;;
43580;SDS011;29175;51.030;4.606;2023-06-26T05:39:01;23.30;;;4.88;;
43580;SDS011;29175;51.030;4.606;2023-06-26T05:41:27;15.07;;;5.30;;
43580;SDS011;29175;51.030;4.606;2023-06-26T05:43:53;25.27;;;5.22;;
43580;SDS011;29175;51.030;4.606;2023-06-26T05:46:19;17.67;;;4.93;;
43580;SDS011;29175;51.030;4.606;2023-06-26T05:48:45;25.80;;;5.65;;
43580;SDS011;29175;51.030;4.606;2023-06-26T05:51:12;20.73;;;5.40;;
43580;SDS011;29175;51.030;4.606;2023-06-26T05:53:38;20.20;;;4.47;;
43580;SDS011;29175;51.030;4.606;2023-06-26T05:56:04;20.42;;;5.07;;
43580;SDS011;29175;51.030;4.606;2023-06-26T05:58:30;13.45;;;4.20;;
43580;SDS011;29175;51.030;4.606;2023-06-26T06:00:56;15.57;;;4.57;;
43580;SDS011;29175;51.030;4.606;2023-06-26T06:03:21;14.50;;;4.15;;
43580;SDS011;29175;51.030;4.606;2023-06-26T06:05:47;20.15;;;4.30;;
43580;SDS011;29175;51.030;4.606;2023-06-26T06:08:13;19.10;;;4.10;;
43580;SDS011;29175;51.030;4.606;2023-06-26T06:10:39;13.93;;;3.72;;
43580;SDS011;29175;51.030;4.606;2023-06-26T06:13:05;12.93;;;4.20;;
43580;SDS011;29175;51.030;4.606;2023-06-26T06:15:30;14.50;;;4.20;;
43580;SDS011;29175;51.030;4.606;2023-06-26T06:17:56;15.50;;;4.30;;
43580;SDS011;29175;51.030;4.606;2023-06-26T06:20:23;17.17;;;3.75;;
43580;SDS011;29175;51.030;4.606;2023-06-26T06:22:49;17.40;;;3.88;;
43580;SDS011;29175;51.030;4.606;2023-06-26T06:25:15;16.77;;;3.95;;
43580;SDS011;29175;51.030;4.606;2023-06-26T06:27:40;12.52;;;3.53;;
43580;SDS011;29175;51.030;4.606;2023-06-26T06:30:07;17.85;;;3.50;;
43580;SDS011;29175;51.030;4.606;2023-06-26T06:32:33;12.50;;;2.83;;
43580;SDS011;29175;51.030;4.606;2023-06-26T06:34:59;12.52;;;3.47;;
43580;SDS011;29175;51.030;4.606;2023-06-26T06:37:24;9.40;;;2.95;;
43580;SDS011;29175;51.030;4.606;2023-06-26T06:39:51;14.10;;;3.03;;
43580;SDS011;29175;51.030;4.606;2023-06-26T06:42:17;10.70;;;3.42;;
43580;SDS011;29175;51.030;4.606;2023-06-26T06:44:42;9.45;;;3.38;;
43580;SDS011;29175;51.030;4.606;2023-06-26T06:47:09;9.77;;;3.15;;
43580;SDS011;29175;51.030;4.606;2023-06-26T06:49:35;8.90;;;2.92;;
43580;SDS011;29175;51.030;4.606;2023-06-26T06:52:00;21.00;;;3.22;;
43580;SDS011;29175;51.030;4.606;2023-06-26T06:54:26;13.25;;;2.72;;
43580;SDS011;29175;51.030;4.606;2023-06-26T06:56:53;8.65;;;2.22;;
43580;SDS011;29175;51.030;4.606;2023-06-26T06:59:18;14.35;;;3.08;;
43580;SDS011;29175;51.030;4.606;2023-06-26T07:01:44;10.98;;;3.00;;
43580;SDS011;29175;51.030;4.606;2023-06-26T07:04:10;12.85;;;3.20;;
43580;SDS011;29175;51.030;4.606;2023-06-26T07:06:35;14.27;;;2.97;;
43580;SDS011;29175;51.030;4.606;2023-06-26T07:09:01;8.88;;;2.63;;
43580;SDS011;29175;51.030;4.606;2023-06-26T07:11:28;12.80;;;3.25;;
43580;SDS011;29175;51.030;4.606;2023-06-26T07:13:55;12.57;;;2.67;;
43580;SDS011;29175;51.030;4.606;2023-06-26T07:16:21;13.05;;;3.03;;
43580;SDS011;29175;51.030;4.606;2023-06-26T07:18:47;8.43;;;2.60;;
43580;SDS011;29175;51.030;4.606;2023-06-26T07:21:14;11.07;;;2.72;;
43580;SDS011;29175;51.030;4.606;2023-06-26T07:23:40;10.30;;;2.53;;
43580;SDS011;29175;51.030;4.606;2023-06-26T07:26:05;14.30;;;2.85;;
43580;SDS011;29175;51.030;4.606;2023-06-26T07:28:31;13.90;;;2.60;;
43580;SDS011;29175;51.030;4.606;2023-06-26T07:30:57;11.13;;;2.53;;
43580;SDS011;29175;51.030;4.606;2023-06-26T07:33:22;9.75;;;2.20;;
43580;SDS011;29175;51.030;4.606;2023-06-26T07:35:48;7.65;;;2.88;;
43580;SDS011;29175;51.030;4.606;2023-06-26T07:38:13;11.45;;;2.90;;
43580;SDS011;29175;51.030;4.606;2023-06-26T07:40:39;11.25;;;2.85;;
43580;SDS011;29175;51.030;4.606;2023-06-26T07:43:05;12.18;;;2.70;;
43580;SDS011;29175;51.030;4.606;2023-06-26T07:45:30;8.07;;;2.30;;
43580;SDS011;29175;51.030;4.606;2023-06-26T07:47:56;11.52;;;2.70;;
43580;SDS011;29175;51.030;4.606;2023-06-26T07:50:21;13.48;;;3.10;;
43580;SDS011;29175;51.030;4.606;2023-06-26T07:52:48;10.57;;;2.30;;
43580;SDS011;29175;51.030;4.606;2023-06-26T07:55:14;7.88;;;2.10;;
43580;SDS011;29175;51.030;4.606;2023-06-26T07:57:40;9.38;;;2.70;;
43580;SDS011;29175;51.030;4.606;2023-06-26T08:00:06;11.20;;;2.50;;
43580;SDS011;29175;51.030;4.606;2023-06-26T08:02:33;8.85;;;2.28;;
43580;SDS011;29175;51.030;4.606;2023-06-26T08:04:59;13.77;;;2.03;;
43580;SDS011;29175;51.030;4.606;2023-06-26T08:07:24;9.20;;;2.40;;
43580;SDS011;29175;51.030;4.606;2023-06-26T08:09:50;9.48;;;2.88;;
43580;SDS011;29175;51.030;4.606;2023-06-26T08:12:16;11.10;;;2.55;;
43580;SDS011;29175;51.030;4.606;2023-06-26T08:14:41;8.35;;;2.10;;
43580;SDS011;29175;51.030;4.606;2023-06-26T08:17:07;8.63;;;1.88;;
43580;SDS011;29175;51.030;4.606;2023-06-26T08:19:32;7.18;;;1.95;;
43580;SDS011;29175;51.030;4.606;2023-06-26T08:21:58;5.07;;;1.88;;
43580;SDS011;29175;51.030;4.606;2023-06-26T08:24:24;7.88;;;1.85;;
43580;SDS011;29175;51.030;4.606;2023-06-26T08:26:49;12.00;;;2.10;;
43580;SDS011;29175;51.030;4.606;2023-06-26T08:29:15;8.70;;;2.22;;
43580;SDS011;29175;51.030;4.606;2023-06-26T08:31:41;10.57;;;1.85;;
43580;SDS011;29175;51.030;4.606;2023-06-26T08:34:07;4.22;;;1.75;;
43580;SDS011;29175;51.030;4.606;2023-06-26T08:36:34;6.80;;;1.73;;
43580;SDS011;29175;51.030;4.606;2023-06-26T08:39:00;9.77;;;1.70;;
43580;SDS011;29175;51.030;4.606;2023-06-26T08:41:25;7.50;;;1.48;;
43580;SDS011;29175;51.030;4.606;2023-06-26T08:43:51;8.52;;;1.40;;
43580;SDS011;29175;51.030;4.606;2023-06-26T08:46:17;7.78;;;1.50;;
43580;SDS011;29175;51.030;4.606;2023-06-26T08:48:45;3.92;;;1.65;;
43580;SDS011;29175;51.030;4.606;2023-06-26T08:51:16;7.68;;;1.60;;
43580;SDS011;29175;51.030;4.606;2023-06-26T08:53:58;5.57;;;1.90;;
43580;SDS011;29175;51.030;4.606;2023-06-26T08:56:30;10.48;;;1.90;;
43580;SDS011;29175;51.030;4.606;2023-06-26T08:59:00;8.23;;;1.75;;
43580;SDS011;29175;51.030;4.606;2023-06-26T09:01:26;8.05;;;2.10;;
43580;SDS011;29175;51.030;4.606;2023-06-26T09:03:53;8.45;;;1.75;;
43580;SDS011;29175;51.030;4.606;2023-06-26T09:06:18;8.77;;;2.05;;
43580;SDS011;29175;51.030;4.606;2023-06-26T09:08:44;11.10;;;2.00;;
43580;SDS011;29175;51.030;4.606;2023-06-26T09:11:10;8.48;;;1.88;;
43580;SDS011;29175;51.030;4.606;2023-06-26T09:13:36;7.85;;;1.90;;
43580;SDS011;29175;51.030;4.606;2023-06-26T09:16:06;8.57;;;1.88;;
43580;SDS011;29175;51.030;4.606;2023-06-26T09:18:33;4.20;;;1.30;;
43580;SDS011;29175;51.030;4.606;2023-06-26T09:20:58;4.43;;;1.60;;
43580;SDS011;29175;51.030;4.606;2023-06-26T09:23:24;8.32;;;1.60;;
43580;SDS011;29175;51.030;4.606;2023-06-26T09:25:51;5.45;;;1.70;;
43580;SDS011;29175;51.030;4.606;2023-06-26T09:28:16;10.20;;;1.60;;
43580;SDS011;29175;51.030;4.606;2023-06-26T09:30:43;5.80;;;1.30;;
43580;SDS011;29175;51.030;4.606;2023-06-26T09:33:18;8.40;;;1.75;;
43580;SDS011;29175;51.030;4.606;2023-06-26T09:35:45;6.10;;;1.60;;
43580;SDS011;29175;51.030;4.606;2023-06-26T09:38:12;6.65;;;1.75;;
43580;SDS011;29175;51.030;4.606;2023-06-26T09:40:38;4.72;;;1.38;;
43580;SDS011;29175;51.030;4.606;2023-06-26T09:43:04;3.53;;;1.52;;
43580;SDS011;29175;51.030;4.606;2023-06-26T09:45:32;5.38;;;1.50;;
43580;SDS011;29175;51.030;4.606;2023-06-26T09:48:03;9.57;;;1.70;;
43580;SDS011;29175;51.030;4.606;2023-06-26T09:50:33;5.65;;;1.60;;
43580;SDS011;29175;51.030;4.606;2023-06-26T09:53:12;13.80;;;1.92;;
43580;SDS011;29175;51.030;4.606;2023-06-26T09:55:38;6.57;;;1.42;;
43580;SDS011;29175;51.030;4.606;2023-06-26T09:58:06;8.02;;;1.63;;
43580;SDS011;29175;51.030;4.606;2023-06-26T10:00:34;7.28;;;1.30;;
43580;SDS011;29175;51.030;4.606;2023-06-26T10:02:59;4.85;;;1.40;;
43580;SDS011;29175;51.030;4.606;2023-06-26T10:05:26;5.45;;;1.40;;
43580;SDS011;29175;51.030;4.606;2023-06-26T10:07:52;7.80;;;1.58;;
43580;SDS011;29175;51.030;4.606;2023-06-26T10:10:21;5.72;;;1.55;;
43580;SDS011;29175;51.030;4.606;2023-06-26T10:12:50;6.85;;;1.35;;
43580;SDS011;29175;51.030;4.606;2023-06-26T10:15:20;6.93;;;1.40;;
43580;SDS011;29175;51.030;4.606;2023-06-26T10:17:48;9.47;;;1.80;;
43580;SDS011;29175;51.030;4.606;2023-06-26T10:20:15;9.10;;;1.67;;
43580;SDS011;29175;51.030;4.606;2023-06-26T10:22:43;4.72;;;1.50;;
43580;SDS011;29175;51.030;4.606;2023-06-26T10:25:12;7.00;;;1.83;;
43580;SDS011;29175;51.030;4.606;2023-06-26T10:27:44;6.18;;;1.50;;
43580;SDS011;29175;51.030;4.606;2023-06-26T10:30:16;5.22;;;1.73;;
43580;SDS011;29175;51.030;4.606;2023-06-26T10:32:46;7.35;;;1.73;;
43580;SDS011;29175;51.030;4.606;2023-06-26T10:35:14;5.53;;;2.00;;
43580;SDS011;29175;51.030;4.606;2023-06-26T10:37:44;5.38;;;1.67;;
43580;SDS011;29175;51.030;4.606;2023-06-26T10:40:11;6.95;;;1.55;;
43580;SDS011;29175;51.030;4.606;2023-06-26T10:42:38;6.70;;;1.55;;
43580;SDS011;29175;51.030;4.606;2023-06-26T10:45:15;3.08;;;1.20;;
43580;SDS011;29175;51.030;4.606;2023-06-26T10:47:43;5.88;;;1.50;;
43580;SDS011;29175;51.030;4.606;2023-06-26T10:50:28;10.18;;;1.85;;
43580;SDS011;29175;51.030;4.606;2023-06-26T10:53:10;7.32;;;1.40;;
43580;SDS011;29175;51.030;4.606;2023-06-26T10:55:37;3.65;;;1.35;;
43580;SDS011;29175;51.030;4.606;2023-06-26T10:58:09;7.72;;;1.63;;
43580;SDS011;29175;51.030;4.606;2023-06-26T11:00:52;6.03;;;1.73;;
43580;SDS011;29175;51.030;4.606;2023-06-26T11:03:40;5.57;;;1.60;;
43580;SDS011;29175;51.030;4.606;2023-06-26T11:06:14;9.25;;;1.55;;
43580;SDS011;29175;51.030;4.606;2023-06-26T11:08:44;6.22;;;1.42;;
43580;SDS011;29175;51.030;4.606;2023-06-26T11:11:14;8.02;;;1.48;;
43580;SDS011;29175;51.030;4.606;2023-06-26T11:13:40;10.25;;;1.85;;
43580;SDS011;29175;51.030;4.606;2023-06-26T11:16:07;4.85;;;1.70;;
43580;SDS011;29175;51.030;4.606;2023-06-26T11:18:33;3.78;;;1.65;;
43580;SDS011;29175;51.030;4.606;2023-06-26T11:21:08;3.72;;;1.40;;
43580;SDS011;29175;51.030;4.606;2023-06-26T11:23:36;3.40;;;1.52;;
43580;SDS011;29175;51.030;4.606;2023-06-26T11:29:03;3.65;;;1.92;;
43580;SDS011;29175;51.030;4.606;2023-06-26T11:31:32;10.05;;;1.95;;
43580;SDS011;29175;51.030;4.606;2023-06-26T11:34:05;6.40;;;1.45;;
43580;SDS011;29175;51.030;4.606;2023-06-26T11:36:33;6.50;;;1.98;;
43580;SDS011;29175;51.030;4.606;2023-06-26T11:39:02;7.63;;;2.05;;
43580;SDS011;29175;51.030;4.606;2023-06-26T11:41:31;4.28;;;1.63;;
43580;SDS011;29175;51.030;4.606;2023-06-26T11:44:01;5.45;;;1.67;;
43580;SDS011;29175;51.030;4.606;2023-06-26T11:46:31;4.00;;;1.60;;
43580;SDS011;29175;51.030;4.606;2023-06-26T11:48:58;9.70;;;1.77;;
43580;SDS011;29175;51.030;4.606;2023-06-26T11:51:26;5.65;;;1.70;;
43580;SDS011;29175;51.030;4.606;2023-06-26T11:53:53;5.23;;;1.60;;
43580;SDS011;29175;51.030;4.606;2023-06-26T11:56:18;5.13;;;1.35;;
43580;SDS011;29175;51.030;4.606;2023-06-26T12:01:42;6.97;;;1.80;;
43580;SDS011;29175;51.030;4.606;2023-06-26T12:04:14;6.85;;;1.27;;
43580;SDS011;29175;51.030;4.606;2023-06-26T12:09:08;4.90;;;1.95;;
43580;SDS011;29175;51.030;4.606;2023-06-26T12:11:37;3.42;;;1.48;;
43580;SDS011;29175;51.030;4.606;2023-06-26T12:14:05;4.63;;;1.40;;
43580;SDS011;29175;51.030;4.606;2023-06-26T12:16:32;6.63;;;1.50;;
43580;SDS011;29175;51.030;4.606;2023-06-26T12:18:59;6.53;;;1.40;;
43580;SDS011;29175;51.030;4.606;2023-06-26T12:24:05;6.53;;;1.75;;
43580;SDS011;29175;51.030;4.606;2023-06-26T12:26:32;10.32;;;1.70;;
43580;SDS011;29175;51.030;4.606;2023-06-26T12:29:05;5.75;;;1.65;;
43580;SDS011;29175;51.030;4.606;2023-06-26T12:31:32;4.90;;;1.60;;
43580;SDS011;29175;51.030;4.606;2023-06-26T12:33:59;4.57;;;1.67;;
43580;SDS011;29175;51.030;4.606;2023-06-26T12:36:25;8.30;;;1.77;;
43580;SDS011;29175;51.030;4.606;2023-06-26T12:38:52;7.05;;;1.63;;
43580;SDS011;29175;51.030;4.606;2023-06-26T12:41:19;4.55;;;1.50;;
43580;SDS011;29175;51.030;4.606;2023-06-26T12:43:45;3.55;;;1.55;;
43580;SDS011;29175;51.030;4.606;2023-06-26T12:46:11;6.93;;;1.85;;
43580;SDS011;29175;51.030;4.606;2023-06-26T12:48:38;6.07;;;1.50;;
43580;SDS011;29175;51.030;4.606;2023-06-26T12:51:12;5.55;;;1.67;;
43580;SDS011;29175;51.030;4.606;2023-06-26T12:53:38;7.40;;;1.85;;
43580;SDS011;29175;51.030;4.606;2023-06-26T12:56:07;6.38;;;1.80;;
43580;SDS011;29175;51.030;4.606;2023-06-26T12:58:34;6.30;;;1.88;;
43580;SDS011;29175;51.030;4.606;2023-06-26T13:01:04;6.00;;;1.60;;
43580;SDS011;29175;51.030;4.606;2023-06-26T13:03:42;5.63;;;1.73;;
43580;SDS011;29175;51.030;4.606;2023-06-26T13:06:07;10.32;;;1.70;;
43580;SDS011;29175;51.030;4.606;2023-06-26T13:08:33;6.43;;;1.90;;
43580;SDS011;29175;51.030;4.606;2023-06-26T13:10:59;2.83;;;1.52;;
43580;SDS011;29175;51.030;4.606;2023-06-26T13:13:25;4.57;;;1.60;;
43580;SDS011;29175;51.030;4.606;2023-06-26T13:15:51;6.45;;;2.13;;
43580;SDS011;29175;51.030;4.606;2023-06-26T13:18:17;7.07;;;1.65;;
43580;SDS011;29175;51.030;4.606;2023-06-26T13:20:42;4.97;;;1.60;;
43580;SDS011;29175;51.030;4.606;2023-06-26T13:23:08;11.48;;;1.52;;
43580;SDS011;29175;51.030;4.606;2023-06-26T13:25:34;5.45;;;1.65;;
43580;SDS011;29175;51.030;4.606;2023-06-26T13:27:59;4.80;;;1.70;;
43580;SDS011;29175;51.030;4.606;2023-06-26T13:30:25;4.72;;;2.00;;
43580;SDS011;29175;51.030;4.606;2023-06-26T13:32:51;5.22;;;1.92;;
43580;SDS011;29175;51.030;4.606;2023-06-26T13:35:16;8.02;;;1.92;;
43580;SDS011;29175;51.030;4.606;2023-06-26T13:37:43;3.90;;;1.58;;
43580;SDS011;29175;51.030;4.606;2023-06-26T13:40:08;4.45;;;1.90;;
43580;SDS011;29175;51.030;4.606;2023-06-26T13:42:35;3.70;;;1.77;;
43580;SDS011;29175;51.030;4.606;2023-06-26T13:45:01;9.23;;;2.30;;
43580;SDS011;29175;51.030;4.606;2023-06-26T13:47:28;5.07;;;1.77;;
43580;SDS011;29175;51.030;4.606;2023-06-26T13:49:55;5.72;;;1.70;;
43580;SDS011;29175;51.030;4.606;2023-06-26T13:52:20;7.38;;;1.70;;
43580;SDS011;29175;51.030;4.606;2023-06-26T13:54:46;3.97;;;1.60;;
43580;SDS011;29175;51.030;4.606;2023-06-26T13:57:11;7.90;;;1.80;;
43580;SDS011;29175;51.030;4.606;2023-06-26T13:59:38;7.38;;;1.90;;
43580;SDS011;29175;51.030;4.606;2023-06-26T14:02:04;6.47;;;1.77;;
43580;SDS011;29175;51.030;4.606;2023-06-26T14:04:31;5.50;;;1.73;;
43580;SDS011;29175;51.030;4.606;2023-06-26T14:06:57;6.45;;;1.83;;
43580;SDS011;29175;51.030;4.606;2023-06-26T14:09:23;5.32;;;2.38;;
43580;SDS011;29175;51.030;4.606;2023-06-26T14:11:49;6.53;;;1.67;;
43580;SDS011;29175;51.030;4.606;2023-06-26T14:14:14;6.80;;;1.77;;
43580;SDS011;29175;51.030;4.606;2023-06-26T14:16:40;6.15;;;1.80;;
43580;SDS011;29175;51.030;4.606;2023-06-26T14:19:06;8.38;;;2.05;;
43580;SDS011;29175;51.030;4.606;2023-06-26T14:21:31;5.50;;;1.50;;
43580;SDS011;29175;51.030;4.606;2023-06-26T14:23:58;12.13;;;2.63;;
43580;SDS011;29175;51.030;4.606;2023-06-26T14:26:24;6.68;;;2.03;;
43580;SDS011;29175;51.030;4.606;2023-06-26T14:28:50;7.72;;;2.13;;
43580;SDS011;29175;51.030;4.606;2023-06-26T14:31:16;7.80;;;1.90;;
43580;SDS011;29175;51.030;4.606;2023-06-26T14:33:42;6.40;;;1.80;;
43580;SDS011;29175;51.030;4.606;2023-06-26T14:36:08;7.22;;;1.58;;
43580;SDS011;29175;51.030;4.606;2023-06-26T14:38:34;4.32;;;1.75;;
43580;SDS011;29175;51.030;4.606;2023-06-26T14:41:01;5.70;;;1.80;;
43580;SDS011;29175;51.030;4.606;2023-06-26T14:43:27;5.10;;;1.55;;
43580;SDS011;29175;51.030;4.606;2023-06-26T14:45:52;4.18;;;1.80;;
43580;SDS011;29175;51.030;4.606;2023-06-26T14:48:18;7.75;;;1.98;;
43580;SDS011;29175;51.030;4.606;2023-06-26T14:50:44;5.88;;;2.00;;
43580;SDS011;29175;51.030;4.606;2023-06-26T14:53:10;7.47;;;2.05;;